Terminal Aerodrome Forecast
Issued by NWS Newport/Morehead City, NC

Home | Current Version | Previous Version | Text Only | Print | Product List | Glossary Off
Versions: 1 2 3 4 5 6 7 8 9 10 11 12 13 14 15 16 17

000
FTUS42 KMHX 202300
TAFEWN
TAF
KEWN 202335Z 2100/2124 00000KT P6SM SCT030 BKN120
     FM210600 00000KT 2SM BR SCT010 SCT120
     FM211200 08005KT P6SM SCT020 SCT120
     FM211700 09006KT P6SM VCTS SCT030CB BKN100=

USA.gov is the U.S. government's official web portal to all federal, state and local government web resources and services.